Newport, Rhode Island
Current Conditions -  °F | °C
As of 10:53 AM on Sunday 25 Jan 2015 (Local Time) from KUUU Reporting Station
Clear Clear  
Wind Chill: 29°   Ceiling: Unl
Heat Index: 38°   Visibility: 10mi
Dew Point: 26°   Wind: 15mph
Humidity: 62%   Direction: 280°W
Pressure: 29.64"   Gusts: 24mph
Location:  41.49°N, 71.31°W
Report Text: KUUU 251553Z AUTO 28013G21KT 10SM CLR 03/M03 A2964 RMK AO2 SLP038 T00331033
Loading
Personal Weather Stations






























Interactive Weather Map New forecast layout! Learn more

10-Day Weather Forecast

Advertisements
Track Severe Weather on mobile